Time;durP1;ratioP1;P1;durP2;ratioP2;P2;SDS_P1;SDS_P2;PMS_P1;PMS_P2;Temp;Humidity;BMP_temperature;BMP_pressure;BME280_temperature;BME280_humidity;BME280_pressure;Samples;Min_cycle;Max_cycle;Signal;HPM_P1;HPM_P2
2021/07/27 00:01:50;;;;;;;10.18;5.65;;;15.60;98.00;;;;;;6310816;22;19999;-78
2021/07/27 00:04:16;;;;;;;9.27;5.28;;;15.40;98.00;;;;;;6283544;22;20000;-78
2021/07/27 00:06:42;;;;;;;9.95;5.75;;;15.20;98.00;;;;;;6310839;22;20166;-80
2021/07/27 00:09:07;;;;;;;10.27;6.50;;;14.90;98.00;;;;;;6283074;22;20007;-79
2021/07/27 00:11:35;;;;;;;10.88;5.88;;;14.80;98.00;;;;;;6283072;22;20377;-79
2021/07/27 00:14:01;;;;;;;11.93;6.68;;;14.60;98.00;;;;;;6310575;22;20011;-79
2021/07/27 00:16:29;;;;;;;10.07;6.38;;;14.60;98.00;;;;;;6308795;22;20419;-79
2021/07/27 00:18:55;;;;;;;11.23;6.97;;;14.50;98.00;;;;;;6283652;22;20388;-79
2021/07/27 00:21:21;;;;;;;11.18;6.80;;;14.50;98.00;;;;;;6310600;22;20086;-79
2021/07/27 00:23:47;;;;;;;9.23;6.13;;;14.40;98.00;;;;;;6283812;22;20068;-79
2021/07/27 00:26:13;;;;;;;11.90;6.60;;;14.40;98.00;;;;;;6310363;22;20431;-79
2021/07/27 00:28:40;;;;;;;12.73;6.90;;;14.40;98.00;;;;;;6310622;22;20003;-79
2021/07/27 00:31:07;;;;;;;11.10;6.53;;;14.40;98.00;;;;;;6308762;22;20003;-79
2021/07/27 00:33:33;;;;;;;11.02;6.85;;;14.30;98.00;;;;;;6284023;22;20003;-79
2021/07/27 00:36:01;;;;;;;14.40;6.82;;;14.30;98.00;;;;;;6309985;22;20026;-79
2021/07/27 00:38:27;;;;;;;10.35;6.82;;;14.20;98.00;;;;;;6310717;22;20048;-79
2021/07/27 00:40:52;;;;;;;9.93;6.50;;;14.20;98.00;;;;;;6310688;22;20037;-79
2021/07/27 00:43:19;;;;;;;13.85;6.85;;;14.30;97.70;;;;;;6310145;22;20002;-79
2021/07/27 00:45:46;;;;;;;16.50;7.85;;;14.30;98.00;;;;;;6281979;22;20035;-79
2021/07/27 00:48:11;;;;;;;11.05;7.05;;;14.30;98.00;;;;;;6282563;22;20279;-79
2021/07/27 00:50:38;;;;;;;9.57;6.38;;;14.30;98.00;;;;;;6283785;22;20089;-79
2021/07/27 00:53:05;;;;;;;10.70;6.95;;;14.30;98.00;;;;;;6282356;22;20003;-79
2021/07/27 00:55:33;;;;;;;9.45;6.68;;;14.20;98.00;;;;;;6282585;22;20276;-79
2021/07/27 00:57:59;;;;;;;10.25;6.60;;;14.20;98.00;;;;;;6309729;22;19999;-79
2021/07/27 01:00:25;;;;;;;10.15;6.40;;;14.10;98.00;;;;;;6281329;22;20048;-79
2021/07/27 01:02:51;;;;;;;13.25;6.45;;;14.00;98.00;;;;;;6283022;22;20400;-79
2021/07/27 01:05:17;;;;;;;9.13;6.18;;;14.00;97.70;;;;;;6309769;22;20064;-79
2021/07/27 01:07:43;;;;;;;12.48;7.20;;;14.10;97.80;;;;;;6310024;22;20003;-78
2021/07/27 01:10:12;;;;;;;10.80;7.13;;;14.10;97.90;;;;;;6309539;22;20003;-79
2021/07/27 01:12:38;;;;;;;11.82;7.55;;;14.10;98.00;;;;;;6309297;22;20010;-79
2021/07/27 01:15:05;;;;;;;11.43;6.57;;;14.10;98.00;;;;;;6308321;22;20003;-78
2021/07/27 01:17:31;;;;;;;11.13;7.15;;;14.10;97.90;;;;;;6283109;22;20011;-79
2021/07/27 01:20:08;;;;;;;11.07;6.43;;;14.20;97.70;;;;;;6282737;22;20115;-78
2021/07/27 01:44:30;;;;;;;11.50;6.68;;;14.00;98.00;;;;;;6312124;22;19948;-79
2021/07/27 01:46:58;;;;;;;10.77;7.00;;;13.90;98.00;;;;;;6309670;22;20050;-79
2021/07/27 01:49:24;;;;;;;11.65;7.15;;;13.90;97.80;;;;;;6282160;22;20007;-78
2021/07/27 01:51:52;;;;;;;11.23;6.95;;;14.00;97.90;;;;;;6309583;22;20010;-79
2021/07/27 01:54:28;;;;;;;12.13;7.45;;;14.10;97.80;;;;;;6308988;22;20409;-79
2021/07/27 01:56:53;;;;;;;10.45;6.38;;;14.20;98.00;;;;;;6309832;22;20008;-79
2021/07/27 01:59:22;;;;;;;9.60;6.43;;;14.30;98.00;;;;;;6309608;22;19999;-78
2021/07/27 02:01:48;;;;;;;10.55;6.00;;;14.40;98.00;;;;;;6282006;22;20003;-79
2021/07/27 02:04:14;;;;;;;13.50;5.95;;;14.50;98.00;;;;;;6309179;22;20074;-79
2021/07/27 02:06:41;;;;;;;10.50;5.95;;;14.50;98.00;;;;;;6309793;22;20023;-79
2021/07/27 02:09:10;;;;;;;11.32;5.90;;;14.60;98.00;;;;;;6308742;22;20003;-79
2021/07/27 02:11:40;;;;;;;9.75;5.75;;;14.70;98.00;;;;;;6309642;22;20052;-79
2021/07/27 02:14:06;;;;;;;11.43;6.28;;;14.70;98.00;;;;;;6309385;22;20003;-79
2021/07/27 02:16:36;;;;;;;8.65;5.78;;;14.60;98.00;;;;;;6308169;22;20510;-79
2021/07/27 02:19:02;;;;;;;12.00;6.07;;;14.80;98.00;;;;;;6309101;22;19999;-79
2021/07/27 02:21:31;;;;;;;11.82;5.80;;;14.60;98.00;;;;;;6309597;22;20006;-79
2021/07/27 02:23:58;;;;;;;12.10;6.72;;;14.40;98.00;;;;;;6309303;22;20014;-79
2021/07/27 02:26:24;;;;;;;9.43;5.68;;;14.20;98.00;;;;;;6283115;22;20007;-79
2021/07/27 02:28:49;;;;;;;9.88;6.35;;;14.00;98.00;;;;;;6308612;22;20007;-79
2021/07/27 02:31:21;;;;;;;11.73;6.88;;;13.80;98.00;;;;;;6307803;22;20074;-79
2021/07/27 02:33:47;;;;;;;14.20;6.68;;;13.70;98.00;;;;;;6309369;22;20007;-79
2021/07/27 02:36:13;;;;;;;15.52;7.20;;;13.60;98.00;;;;;;6309320;22;20413;-79
2021/07/27 02:38:38;;;;;;;13.82;7.32;;;13.60;97.80;;;;;;6309915;22;20368;-79
2021/07/27 02:41:04;;;;;;;12.75;7.30;;;13.60;97.70;;;;;;6281699;22;20038;-79
2021/07/27 02:43:30;;;;;;;9.07;6.45;;;13.60;97.80;;;;;;6309021;22;20003;-79
2021/07/27 02:45:55;;;;;;;12.05;6.70;;;13.70;97.60;;;;;;6307917;22;19999;-78
2021/07/27 02:48:24;;;;;;;15.10;7.38;;;13.70;97.40;;;;;;6282065;22;20014;-79
2021/07/27 02:51:01;;;;;;;12.35;7.20;;;13.90;97.70;;;;;;6282683;22;20007;-78
2021/07/27 02:53:30;;;;;;;13.18;7.03;;;14.00;98.00;;;;;;6282189;22;20069;-78
2021/07/27 02:56:02;;;;;;;10.45;5.95;;;14.10;98.00;;;;;;6309266;22;20007;-79
2021/07/27 02:58:31;;;;;;;13.65;6.72;;;14.00;98.00;;;;;;6309899;22;19999;-78
2021/07/27 03:00:57;;;;;;;9.15;6.45;;;13.80;98.00;;;;;;6307882;22;20056;-79
2021/07/27 03:03:22;;;;;;;11.30;6.90;;;13.70;98.00;;;;;;6281720;22;20027;-80
2021/07/27 03:05:48;;;;;;;11.38;6.75;;;13.80;98.00;;;;;;6281787;22;20010;-80
2021/07/27 03:08:21;;;;;;;11.57;6.80;;;13.80;98.00;;;;;;6281621;22;20150;-78
2021/07/27 03:10:46;;;;;;;10.70;6.50;;;13.80;98.00;;;;;;6309702;22;20352;-79
2021/07/27 03:13:12;;;;;;;11.35;6.55;;;13.80;98.00;;;;;;6308916;22;20003;-79
2021/07/27 03:15:40;;;;;;;11.77;6.85;;;13.80;98.00;;;;;;6307888;22;20003;-79
2021/07/27 03:18:05;;;;;;;9.75;6.68;;;13.70;98.00;;;;;;6281743;22;20307;-79
2021/07/27 03:20:32;;;;;;;13.07;7.32;;;13.60;98.00;;;;;;6309463;22;19996;-79
2021/07/27 03:22:58;;;;;;;13.40;7.53;;;13.60;98.00;;;;;;6308953;22;20080;-79
2021/07/27 03:25:25;;;;;;;12.05;6.82;;;13.60;98.00;;;;;;6308990;22;20029;-79
2021/07/27 03:27:52;;;;;;;12.48;7.15;;;13.60;98.00;;;;;;6282048;22;20026;-78
2021/07/27 03:30:19;;;;;;;11.35;7.43;;;13.50;98.00;;;;;;6280487;22;20007;-79
2021/07/27 03:32:46;;;;;;;16.00;8.02;;;13.50;98.00;;;;;;6309322;22;19991;-78
2021/07/27 03:35:15;;;;;;;10.93;7.05;;;13.40;98.00;;;;;;6308472;22;20023;-78
2021/07/27 03:37:42;;;;;;;14.90;7.97;;;13.20;98.00;;;;;;6309235;22;20007;-79
2021/07/27 03:40:08;;;;;;;12.02;7.75;;;13.10;97.80;;;;;;6308649;22;19999;-78
2021/07/27 03:42:34;;;;;;;12.45;6.90;;;13.00;97.70;;;;;;6308924;22;20092;-78
2021/07/27 03:45:00;;;;;;;12.23;7.35;;;12.90;97.20;;;;;;6280239;22;20272;-78
2021/07/27 03:47:26;;;;;;;12.82;7.55;;;13.10;96.80;;;;;;6309179;22;20074;-79
2021/07/27 03:49:55;;;;;;;12.98;7.07;;;13.10;96.60;;;;;;6309588;22;20317;-78
2021/07/27 03:52:21;;;;;;;14.15;7.40;;;13.20;96.70;;;;;;6307738;22;20340;-78
2021/07/27 03:54:47;;;;;;;11.10;7.38;;;13.20;96.00;;;;;;6309302;22;20245;-78
2021/07/27 03:57:12;;;;;;;10.77;6.50;;;13.30;96.90;;;;;;6281477;22;20062;-78
2021/07/27 03:59:38;;;;;;;11.57;7.18;;;13.30;96.90;;;;;;6307965;22;20005;-78
2021/07/27 04:02:04;;;;;;;10.23;6.68;;;13.30;97.20;;;;;;6308457;22;20070;-78
2021/07/27 04:04:34;;;;;;;11.95;6.68;;;13.20;97.40;;;;;;6308699;22;20101;-78
2021/07/27 04:06:59;;;;;;;11.50;7.93;;;13.10;97.10;;;;;;6280846;22;20007;-78
2021/07/27 04:09:25;;;;;;;10.90;7.05;;;13.00;97.70;;;;;;6281322;22;20006;-78
2021/07/27 04:11:51;;;;;;;15.63;6.88;;;12.90;97.10;;;;;;6309874;22;20003;-78
2021/07/27 04:14:16;;;;;;;14.60;7.68;;;12.90;97.20;;;;;;6310677;22;20265;-78
2021/07/27 04:16:42;;;;;;;10.63;6.90;;;12.80;97.00;;;;;;6282253;22;20011;-79
2021/07/27 04:19:08;;;;;;;12.65;7.32;;;12.70;97.10;;;;;;6283290;22;20025;-78
2021/07/27 04:21:34;;;;;;;11.00;7.30;;;12.70;96.40;;;;;;6310842;22;20315;-78
2021/07/27 04:24:01;;;;;;;11.55;7.75;;;12.70;96.50;;;;;;6310197;22;20426;-78
2021/07/27 04:26:30;;;;;;;13.15;8.23;;;12.70;96.40;;;;;;6283786;22;20007;-79
2021/07/27 04:28:56;;;;;;;13.73;8.85;;;12.80;96.00;;;;;;6283417;22;20006;-78
2021/07/27 04:31:22;;;;;;;13.85;8.57;;;12.90;95.90;;;;;;6281341;22;20010;-78
2021/07/27 04:33:49;;;;;;;13.27;7.72;;;12.90;95.50;;;;;;6309762;22;20018;-78
2021/07/27 04:36:15;;;;;;;15.68;8.40;;;13.00;95.60;;;;;;6282228;22;20068;-78
2021/07/27 04:38:42;;;;;;;14.07;8.00;;;13.00;95.80;;;;;;6283852;22;20031;-78
2021/07/27 04:41:10;;;;;;;10.23;6.68;;;13.00;95.60;;;;;;6282991;22;20007;-78
2021/07/27 04:43:36;;;;;;;12.25;7.72;;;13.20;95.80;;;;;;6310082;22;20022;-78
2021/07/27 04:46:04;;;;;;;31.65;8.32;;;13.20;95.90;;;;;;6308938;22;20082;-78
2021/07/27 04:48:30;;;;;;;11.30;7.22;;;13.30;96.20;;;;;;6310735;22;19999;-79
2021/07/27 04:50:57;;;;;;;12.13;7.07;;;13.40;96.70;;;;;;6309856;22;20007;-78
2021/07/27 04:53:26;;;;;;;11.43;7.53;;;13.40;96.90;;;;;;6308158;22;20015;-76
2021/07/27 04:55:53;;;;;;;10.52;6.60;;;13.40;96.90;;;;;;6309578;22;20011;-76
2021/07/27 04:58:18;;;;;;;11.45;6.93;;;13.30;96.80;;;;;;6308752;22;19995;-77
2021/07/27 05:00:44;;;;;;;11.30;7.63;;;13.40;97.10;;;;;;6307742;22;20045;-78
2021/07/27 05:03:10;;;;;;;10.90;6.53;;;13.50;97.00;;;;;;6283059;22;19999;-78
2021/07/27 05:05:35;;;;;;;11.90;7.22;;;13.40;97.30;;;;;;6309917;22;20074;-77
2021/07/27 05:08:02;;;;;;;11.60;6.80;;;13.40;97.20;;;;;;6310142;22;20003;-78
2021/07/27 05:10:28;;;;;;;13.85;7.90;;;13.50;97.10;;;;;;6282462;22;20088;-78
2021/07/27 05:12:53;;;;;;;9.95;6.65;;;13.50;97.20;;;;;;6310664;22;19999;-78
2021/07/27 05:15:19;;;;;;;11.25;6.30;;;13.60;97.20;;;;;;6281201;22;20007;-77
2021/07/27 05:17:46;;;;;;;11.10;6.55;;;13.60;97.20;;;;;;6282682;22;20030;-78
2021/07/27 05:20:12;;;;;;;9.55;6.28;;;13.70;97.10;;;;;;6309697;22;19999;-78
2021/07/27 05:22:38;;;;;;;11.10;7.00;;;13.80;97.50;;;;;;6310092;22;20003;-78
2021/07/27 05:25:04;;;;;;;10.52;6.53;;;13.90;97.00;;;;;;6309576;22;20003;-77
2021/07/27 05:27:35;;;;;;;12.35;6.38;;;14.10;97.70;;;;;;6310564;22;20082;-78
2021/07/27 05:30:01;;;;;;;12.07;6.97;;;14.20;97.80;;;;;;6308423;22;20108;-77
2021/07/27 05:32:27;;;;;;;9.35;5.60;;;14.20;98.00;;;;;;6283145;22;20014;-77
2021/07/27 05:34:53;;;;;;;9.77;6.47;;;14.30;98.00;;;;;;6282968;22;20090;-78
2021/07/27 05:37:19;;;;;;;12.77;6.00;;;14.40;98.00;;;;;;6282362;22;20011;-78
2021/07/27 05:39:45;;;;;;;8.02;5.53;;;14.50;98.00;;;;;;6310467;22;20022;-77
2021/07/27 05:42:10;;;;;;;9.80;6.40;;;14.60;98.00;;;;;;6309806;22;20002;-78
2021/07/27 05:44:36;;;;;;;11.32;5.85;;;14.80;98.00;;;;;;6281820;22;20007;-77
2021/07/27 05:47:02;;;;;;;11.10;5.90;;;14.90;98.00;;;;;;6309666;22;20265;-77
2021/07/27 05:49:29;;;;;;;9.55;5.85;;;15.10;98.00;;;;;;6283048;22;20011;-77
2021/07/27 05:51:55;;;;;;;10.95;5.43;;;15.20;98.00;;;;;;6310108;22;20037;-77
2021/07/27 05:54:24;;;;;;;9.00;5.75;;;15.40;98.00;;;;;;6282129;22;20064;-78
2021/07/27 05:56:54;;;;;;;10.85;5.20;;;15.60;98.00;;;;;;6283043;22;20042;-79
2021/07/27 05:59:20;;;;;;;9.02;5.50;;;15.90;98.00;;;;;;6309787;22;20007;-79
2021/07/27 06:01:50;;;;;;;7.53;5.18;;;16.10;98.00;;;;;;6281448;22;19995;-78
2021/07/27 06:04:16;;;;;;;9.68;4.93;;;16.40;98.00;;;;;;6309410;22;20066;-78
2021/07/27 06:06:41;;;;;;;10.52;4.82;;;16.70;98.00;;;;;;6310040;22;19995;-78
2021/07/27 06:09:10;;;;;;;9.02;4.97;;;17.10;98.00;;;;;;6282282;22;20007;-78
2021/07/27 06:11:37;;;;;;;7.18;4.93;;;17.30;98.00;;;;;;6310227;22;20541;-79
2021/07/27 06:14:09;;;;;;;8.00;4.95;;;17.40;98.00;;;;;;6308910;22;20007;-78
2021/07/27 06:16:37;;;;;;;8.55;4.63;;;17.80;98.00;;;;;;6308326;22;20003;-79
2021/07/27 06:19:07;;;;;;;7.00;4.20;;;18.20;97.60;;;;;;6309221;22;20027;-78
2021/07/27 06:21:33;;;;;;;6.68;4.15;;;18.50;97.20;;;;;;6309760;22;20022;-78
2021/07/27 06:23:59;;;;;;;8.70;4.35;;;18.90;95.00;;;;;;6282297;22;20018;-78
2021/07/27 06:26:25;;;;;;;8.10;4.43;;;19.30;93.40;;;;;;6309617;22;20007;-78
2021/07/27 06:28:50;;;;;;;9.20;3.80;;;19.70;91.90;;;;;;6309942;22;20003;-78
2021/07/27 06:31:16;;;;;;;10.48;4.32;;;20.00;92.60;;;;;;6307617;22;20003;-79
2021/07/27 06:33:44;;;;;;;9.35;4.00;;;20.20;91.20;;;;;;6309669;22;20022;-78
2021/07/27 06:36:10;;;;;;;7.55;3.80;;;20.30;91.30;;;;;;6309269;22;20011;-78
2021/07/27 06:38:36;;;;;;;7.70;3.80;;;20.40;89.40;;;;;;6309746;22;20062;-78
2021/07/27 06:41:05;;;;;;;7.15;3.80;;;20.00;88.80;;;;;;6309335;22;19999;-78
2021/07/27 06:43:30;;;;;;;7.18;3.70;;;19.80;88.10;;;;;;6309300;22;20074;-78
2021/07/27 06:45:56;;;;;;;6.95;4.00;;;19.60;88.70;;;;;;6308413;22;20030;-78
2021/07/27 06:48:25;;;;;;;6.90;4.30;;;19.40;90.00;;;;;;6309233;22;19999;-78
2021/07/27 06:50:52;;;;;;;7.10;3.72;;;19.50;89.00;;;;;;6309727;22;20027;-78
2021/07/27 06:53:18;;;;;;;7.07;3.90;;;19.60;88.40;;;;;;6308629;22;20387;-78
2021/07/27 06:55:44;;;;;;;7.30;3.97;;;19.70;89.10;;;;;;6309287;22;20018;-78
2021/07/27 06:58:10;;;;;;;6.88;4.18;;;19.80;89.70;;;;;;6281663;22;19999;-78
2021/07/27 07:00:38;;;;;;;7.13;3.90;;;19.90;89.70;;;;;;6308285;22;20053;-78
2021/07/27 07:03:04;;;;;;;6.38;3.75;;;20.10;88.00;;;;;;6309092;22;20056;-79
2021/07/27 07:05:30;;;;;;;6.75;4.05;;;20.20;86.30;;;;;;6309622;22;20026;-78
2021/07/27 07:07:56;;;;;;;8.20;4.05;;;20.30;86.80;;;;;;6309526;22;20006;-78
2021/07/27 07:10:22;;;;;;;8.48;3.60;;;20.20;86.60;;;;;;6308922;22;20003;-78
2021/07/27 07:12:48;;;;;;;7.68;4.10;;;20.20;86.40;;;;;;6282384;22;20440;-78
2021/07/27 07:15:14;;;;;;;6.47;3.60;;;20.10;87.40;;;;;;6280380;22;20149;-78
2021/07/27 07:17:39;;;;;;;7.38;4.00;;;20.30;86.60;;;;;;6309605;22;20003;-78
2021/07/27 07:20:06;;;;;;;6.97;3.72;;;20.30;85.40;;;;;;6308999;22;20317;-79
2021/07/27 07:22:32;;;;;;;7.88;4.05;;;20.40;84.30;;;;;;6309346;22;20378;-78
2021/07/27 07:24:57;;;;;;;7.80;3.95;;;20.50;84.50;;;;;;6309556;22;19996;-78
2021/07/27 07:27:23;;;;;;;7.20;4.07;;;20.70;83.80;;;;;;6308802;22;20010;-78
2021/07/27 07:29:53;;;;;;;8.23;4.35;;;20.80;83.40;;;;;;6308289;22;20562;-78
2021/07/27 07:32:19;;;;;;;9.43;4.45;;;20.80;83.80;;;;;;6309029;22;20031;-78
2021/07/27 07:34:45;;;;;;;8.35;4.03;;;21.00;84.30;;;;;;6309450;22;20253;-79
2021/07/27 07:37:10;;;;;;;6.78;3.95;;;21.10;84.80;;;;;;6308828;22;20086;-78
2021/07/27 07:39:36;;;;;;;5.80;3.63;;;21.20;84.50;;;;;;6282244;22;20004;-79
2021/07/27 07:42:05;;;;;;;5.72;3.58;;;21.80;82.80;;;;;;6281436;22;20010;-78
2021/07/27 07:44:31;;;;;;;7.82;4.50;;;22.80;80.20;;;;;;6308008;22;20064;-78
2021/07/27 07:46:56;;;;;;;7.32;4.10;;;23.10;77.50;;;;;;6310488;22;20053;-79
2021/07/27 07:49:22;;;;;;;6.25;3.63;;;23.20;77.50;;;;;;6310915;22;20003;-78
2021/07/27 07:51:49;;;;;;;7.97;3.58;;;23.70;76.40;;;;;;6311262;22;20003;-79
2021/07/27 07:54:15;;;;;;;6.50;3.92;;;24.50;73.70;;;;;;6310272;22;20003;-79
2021/07/27 07:56:42;;;;;;;6.45;3.67;;;24.90;72.80;;;;;;6311388;22;20012;-79
2021/07/27 07:59:08;;;;;;;6.03;3.63;;;24.30;73.10;;;;;;6310858;22;19999;-79
2021/07/27 08:01:33;;;;;;;6.10;3.38;;;24.10;74.40;;;;;;6310175;22;20074;-78
2021/07/27 08:03:59;;;;;;;5.97;3.42;;;25.30;72.20;;;;;;6311156;22;20007;-78
2021/07/27 08:06:25;;;;;;;7.20;4.07;;;25.80;71.00;;;;;;6310911;22;20003;-78
2021/07/27 08:08:51;;;;;;;6.88;3.58;;;25.80;71.00;;;;;;6284009;22;20361;-78
2021/07/27 08:11:17;;;;;;;6.82;4.05;;;25.80;71.40;;;;;;6310650;22;20007;-77
2021/07/27 08:13:43;;;;;;;5.75;3.40;;;26.20;71.70;;;;;;6284284;22;20357;-78
2021/07/27 08:16:09;;;;;;;6.65;3.35;;;26.60;69.40;;;;;;6281865;22;20029;-78
2021/07/27 08:18:35;;;;;;;6.93;3.30;;;28.00;67.50;;;;;;6311063;22;20031;-78
2021/07/27 08:21:01;;;;;;;6.93;3.60;;;28.80;64.80;;;;;;6283519;22;20035;-78
2021/07/27 08:23:27;;;;;;;7.55;3.58;;;29.50;63.90;;;;;;6310896;22;19999;-77
2021/07/27 08:25:52;;;;;;;5.85;3.50;;;30.10;62.60;;;;;;6311380;22;20033;-78
2021/07/27 08:28:18;;;;;;;6.50;3.53;;;30.60;61.90;;;;;;6310603;22;20070;-78
2021/07/27 08:30:43;;;;;;;5.85;2.97;;;30.40;61.70;;;;;;6309682;22;20437;-78
2021/07/27 08:33:09;;;;;;;6.95;3.47;;;29.70;62.80;;;;;;6310385;22;20003;-78
2021/07/27 08:35:35;;;;;;;7.20;3.17;;;30.00;62.70;;;;;;6310609;22;20078;-78
2021/07/27 08:38:01;;;;;;;5.35;3.13;;;29.70;62.90;;;;;;6283443;22;20010;-79
2021/07/27 08:40:28;;;;;;;7.38;3.72;;;29.00;63.70;;;;;;6310720;22;20030;-77
2021/07/27 08:42:56;;;;;;;5.70;3.50;;;28.40;63.40;;;;;;6310791;22;19999;-77
2021/07/27 08:45:22;;;;;;;5.63;2.97;;;28.20;64.60;;;;;;6309039;22;19995;-79
2021/07/27 08:47:49;;;;;;;6.18;3.53;;;28.50;62.30;;;;;;6310793;22;20242;-77
2021/07/27 08:50:16;;;;;;;7.85;4.63;;;28.10;64.80;;;;;;6310331;22;20005;-79
2021/07/27 08:52:42;;;;;;;6.85;4.07;;;27.60;66.70;;;;;;6310559;22;20068;-80
2021/07/27 08:55:09;;;;;;;6.47;3.80;;;27.30;68.00;;;;;;6282913;22;20007;-79
2021/07/27 08:57:35;;;;;;;6.72;4.28;;;26.60;69.30;;;;;;6310708;22;20007;-78
2021/07/27 09:00:01;;;;;;;5.88;3.60;;;26.20;72.40;;;;;;6308701;22;20052;-78
2021/07/27 09:02:31;;;;;;;6.90;3.70;;;26.10;73.60;;;;;;6310780;22;20003;-78
2021/07/27 09:05:23;;;;;;;7.97;4.22;;;25.90;73.10;;;;;;6310747;22;19995;-78
2021/07/27 09:07:49;;;;;;;7.45;4.22;;;25.50;73.10;;;;;;6306227;22;20010;-78
2021/07/27 09:10:22;;;;;;;7.43;3.85;;;25.10;75.10;;;;;;6310076;22;20384;-79
2021/07/27 09:12:58;;;;;;;;;;;24.70;74.70;;;;;;6311095;22;20006;-78
2021/07/27 09:15:35;;;;;;;6.15;3.47;;;24.50;75.00;;;;;;6308545;22;19909;-77
2021/07/27 09:18:03;;;;;;;6.13;3.55;;;25.20;72.20;;;;;;6310156;22;20007;-77
2021/07/27 09:20:40;;;;;;;7.10;3.95;;;25.70;71.60;;;;;;6310482;22;19995;-78
2021/07/27 09:23:16;;;;;;;9.50;3.47;;;26.10;70.40;;;;;;6309948;22;20316;-78
2021/07/27 09:25:50;;;;;;;6.82;3.63;;;27.10;69.40;;;;;;6310435;22;19999;-79
2021/07/27 09:28:17;;;;;;;5.50;3.33;;;28.00;67.00;;;;;;6309892;22;20003;-78
2021/07/27 09:30:44;;;;;;;6.68;4.03;;;28.00;65.00;;;;;;6281982;22;20007;-78
2021/07/27 09:33:12;;;;;;;7.43;3.35;;;28.40;65.70;;;;;;6309917;22;19999;-78
2021/07/27 09:35:39;;;;;;;7.40;3.28;;;29.00;64.60;;;;;;6283131;22;20062;-78
2021/07/27 09:38:09;;;;;;;6.80;3.40;;;30.20;64.70;;;;;;6309490;22;20070;-78
2021/07/27 09:40:37;;;;;;;6.43;3.55;;;30.50;60.20;;;;;;6283213;22;20261;-78
2021/07/27 09:43:03;;;;;;;7.03;3.35;;;29.30;64.10;;;;;;6309740;22;20003;-78
2021/07/27 09:45:29;;;;;;;6.10;3.40;;;30.00;62.20;;;;;;6308911;22;20030;-78
2021/07/27 09:47:55;;;;;;;8.13;4.25;;;30.60;62.60;;;;;;6310313;22;20006;-78
2021/07/27 09:50:24;;;;;;;8.02;3.92;;;30.70;61.00;;;;;;6309592;22;19999;-78
2021/07/27 09:52:52;;;;;;;7.25;3.70;;;30.20;62.80;;;;;;6310196;22;20018;-78
2021/07/27 09:55:22;;;;;;;7.25;3.30;;;30.20;63.40;;;;;;6309473;22;19999;-78
2021/07/27 09:57:48;;;;;;;5.57;3.10;;;30.50;62.20;;;;;;6310115;22;20031;-79
2021/07/27 10:00:16;;;;;;;5.60;3.20;;;31.40;61.00;;;;;;6308156;22;20015;-79
2021/07/27 10:02:45;;;;;;;6.35;3.70;;;31.50;59.10;;;;;;6310238;22;20245;-78
2021/07/27 10:05:12;;;;;;;6.63;4.10;;;31.40;59.20;;;;;;6309713;22;20011;-78
2021/07/27 10:07:37;;;;;;;7.40;3.50;;;29.00;64.50;;;;;;6283053;22;20006;-78
2021/07/27 10:10:09;;;;;;;9.93;4.43;;;27.80;68.10;;;;;;6308793;22;20003;-78
2021/07/27 10:12:35;;;;;;;6.25;3.78;;;27.10;67.90;;;;;;6309948;22;19995;-78
2021/07/27 10:15:18;;;;;;;8.07;4.10;;;26.00;70.50;;;;;;6308156;22;20466;-78
2021/07/27 10:17:54;;;;;;;6.88;3.90;;;25.70;71.00;;;;;;6309554;22;20009;-78
2021/07/27 10:20:24;;;;;;;6.35;3.90;;;25.50;71.70;;;;;;6308910;22;20390;-78
2021/07/27 10:22:51;;;;;;;8.05;3.85;;;25.70;72.30;;;;;;6310072;22;20017;-78
2021/07/27 10:25:18;;;;;;;8.02;4.80;;;26.80;72.30;;;;;;6309157;22;20030;-78
2021/07/27 10:27:50;;;;;;;6.90;4.13;;;27.60;67.70;;;;;;6309833;22;20272;-78
2021/07/27 10:30:17;;;;;;;7.22;4.60;;;26.90;69.70;;;;;;6308055;22;20011;-78
2021/07/27 10:32:55;;;;;;;10.35;4.50;;;26.20;70.70;;;;;;6309706;22;19991;-78
2021/07/27 10:35:29;;;;;;;7.50;4.15;;;25.60;73.60;;;;;;6309101;22;20006;-78
2021/07/27 10:38:14;;;;;;;7.15;3.55;;;27.00;70.10;;;;;;6282652;22;20442;-79
2021/07/27 10:40:42;;;;;;;6.97;3.60;;;28.80;65.40;;;;;;6309371;22;20010;-78
2021/07/27 10:43:09;;;;;;;7.15;3.35;;;29.60;64.20;;;;;;6308921;22;19996;-79
2021/07/27 10:45:35;;;;;;;6.80;3.85;;;31.10;61.20;;;;;;6308491;22;19995;-79
2021/07/27 10:48:01;;;;;;;5.78;3.53;;;31.90;59.00;;;;;;6309407;22;20271;-78
2021/07/27 10:50:31;;;;;;;5.93;3.42;;;31.90;59.50;;;;;;6309559;22;20031;-78
2021/07/27 10:53:02;;;;;;;6.90;3.88;;;31.70;57.70;;;;;;6282442;22;20449;-78
2021/07/27 10:55:29;;;;;;;5.85;3.60;;;30.80;59.10;;;;;;6309491;22;20007;-78
2021/07/27 10:57:56;;;;;;;6.10;3.45;;;30.20;61.00;;;;;;6309284;22;20003;-78
2021/07/27 11:00:35;;;;;;;7.30;3.58;;;28.70;62.40;;;;;;6307637;22;20049;-78
2021/07/27 11:03:02;;;;;;;7.85;3.75;;;28.20;64.40;;;;;;6282304;22;20403;-78
2021/07/27 11:05:30;;;;;;;6.63;4.10;;;28.70;64.50;;;;;;6309663;22;20023;-78
2021/07/27 11:07:56;;;;;;;7.90;4.00;;;29.40;63.90;;;;;;6309210;22;20082;-78
2021/07/27 11:10:26;;;;;;;6.85;3.75;;;29.80;61.80;;;;;;6309178;22;19999;-78
2021/07/27 11:12:52;;;;;;;7.40;3.80;;;29.60;62.50;;;;;;6309505;22;20036;-79
2021/07/27 11:15:23;;;;;;;6.20;4.00;;;29.00;63.60;;;;;;6307560;22;20082;-78
2021/07/27 11:17:57;;;;;;;7.50;4.10;;;29.20;62.10;;;;;;6309237;22;20254;-78
2021/07/27 11:20:25;;;;;;;6.95;4.10;;;28.90;64.80;;;;;;6281780;22;20311;-79
2021/07/27 11:22:56;;;;;;;7.35;3.88;;;29.00;65.40;;;;;;6311391;22;20085;-79
2021/07/27 11:25:26;;;;;;;7.10;3.97;;;29.60;64.20;;;;;;6284119;22;20376;-78
2021/07/27 11:27:53;;;;;;;12.55;5.47;;;30.00;61.40;;;;;;6284178;22;20035;-78
2021/07/27 11:30:22;;;;;;;6.18;3.95;;;30.00;65.80;;;;;;6309707;22;20037;-78
2021/07/27 11:32:49;;;;;;;9.23;4.25;;;29.70;59.30;;;;;;6311627;22;20400;-78
2021/07/27 11:35:26;;;;;;;6.85;4.13;;;28.30;64.50;;;;;;6283669;22;20007;-77
2021/07/27 11:38:05;;;;;;;7.45;4.18;;;27.20;65.70;;;;;;6311480;22;20003;-77
2021/07/27 11:40:31;;;;;;;7.38;3.90;;;27.80;65.50;;;;;;6311615;22;19999;-77
2021/07/27 11:45:27;;;;;;;8.23;3.85;;;30.20;65.80;;;;;;6246200;23;20028;-78
2021/07/27 11:47:53;;;;;;;7.95;4.13;;;30.90;62.90;;;;;;6223512;23;20008;-79
2021/07/27 11:50:40;;;;;;;7.15;3.33;;;31.40;59.40;;;;;;6222934;23;20420;-78
2021/07/27 11:53:11;;;;;;;7.40;4.32;;;31.60;60.90;;;;;;6222885;23;20004;-77
2021/07/27 11:55:38;;;;;;;7.43;4.15;;;31.60;60.70;;;;;;6249918;23;20031;-78
2021/07/27 11:58:05;;;;;;;7.28;4.03;;;30.90;62.50;;;;;;6249140;23;20015;-78
2021/07/27 12:00:32;;;;;;;7.35;4.05;;;31.00;61.40;;;;;;6248104;23;20000;-78
2021/07/27 12:03:04;;;;;;;5.65;3.70;;;31.30;59.20;;;;;;6250131;23;20079;-78
2021/07/27 12:05:31;;;;;;;6.38;3.78;;;31.00;60.70;;;;;;6223492;23;20000;-78
2021/07/27 12:07:57;;;;;;;6.53;4.18;;;30.90;59.10;;;;;;6249971;23;20273;-76
2021/07/27 12:10:24;;;;;;;6.85;3.92;;;30.30;60.20;;;;;;6249282;23;20071;-75
2021/07/27 12:12:50;;;;;;;8.00;4.50;;;28.60;64.00;;;;;;6249651;23;20010;-76
2021/07/27 12:15:18;;;;;;;7.32;4.35;;;27.50;66.10;;;;;;6247820;23;20269;-76
2021/07/27 12:17:44;;;;;;;8.02;4.28;;;27.20;67.50;;;;;;6249799;23;20000;-76
2021/07/27 12:20:13;;;;;;;7.55;4.53;;;27.70;69.20;;;;;;6249373;23;20419;-75
2021/07/27 12:22:41;;;;;;;7.47;4.35;;;28.20;65.30;;;;;;6249842;23;20000;-76
2021/07/27 12:25:08;;;;;;;8.77;4.50;;;28.60;67.40;;;;;;6249279;23;19996;-79
2021/07/27 12:27:33;;;;;;;7.45;4.72;;;28.70;67.20;;;;;;6249739;23;20007;-78
2021/07/27 12:29:59;;;;;;;6.68;3.97;;;28.70;67.80;;;;;;6248215;23;20036;-76
2021/07/27 12:32:25;;;;;;;6.95;4.10;;;28.80;67.60;;;;;;6249047;23;20004;-76
2021/07/27 12:34:51;;;;;;;7.25;4.05;;;29.80;67.90;;;;;;6249738;23;20000;-77
2021/07/27 12:37:18;;;;;;;7.53;4.22;;;30.30;64.00;;;;;;6248940;23;20427;-71
2021/07/27 12:39:45;;;;;;;7.28;4.03;;;30.80;65.40;;;;;;6248998;23;20000;-76
2021/07/27 12:42:11;;;;;;;9.25;4.35;;;31.50;61.00;;;;;;6248956;23;20050;-76
2021/07/27 12:44:37;;;;;;;9.05;4.35;;;31.90;59.30;;;;;;6248035;23;20409;-74
2021/07/27 12:47:03;;;;;;;6.93;3.95;;;31.20;61.20;;;;;;6249218;23;20000;-76
2021/07/27 12:49:28;;;;;;;7.55;3.92;;;30.20;63.50;;;;;;6249455;23;20308;-76
2021/07/27 12:51:54;;;;;;;20.60;4.15;;;29.50;67.20;;;;;;6249570;23;20058;-80
2021/07/27 12:54:23;;;;;;;6.93;3.95;;;29.40;66.70;;;;;;6222408;23;20005;-89
2021/07/27 12:56:49;;;;;;;7.80;4.40;;;28.50;65.80;;;;;;6249633;23;20537;-83
2021/07/27 12:59:14;;;;;;;7.40;4.25;;;27.90;68.40;;;;;;6248059;23;20024;-83
2021/07/27 13:01:43;;;;;;;8.68;4.60;;;27.80;69.10;;;;;;6222559;23;20251;-84
2021/07/27 13:04:08;;;;;;;7.65;3.90;;;27.90;68.60;;;;;;6222444;23;20061;-81
2021/07/27 13:06:35;;;;;;;6.45;4.18;;;27.80;67.60;;;;;;6249355;23;20032;-85
2021/07/27 13:09:02;;;;;;;7.18;4.20;;;28.00;69.20;;;;;;6249601;23;20015;-77